createdAt,value
2019-01-24T00:01:03.471Z,99.15
2019-01-24T00:03:30.442Z,98.89
2019-01-24T00:05:57.542Z,98.34
2019-01-24T00:08:24.496Z,98.86
2019-01-24T00:10:51.422Z,98.56
2019-01-24T00:13:18.377Z,98.42
2019-01-24T00:15:45.294Z,98.31
2019-01-24T00:18:12.298Z,97.99
2019-01-24T00:20:39.271Z,97.64
2019-01-24T00:23:06.205Z,97.64
2019-01-24T00:25:33.134Z,97.61
2019-01-24T00:28:00.080Z,98.03
2019-01-24T00:30:27.008Z,98.73
2019-01-24T00:32:53.931Z,98.73
2019-01-24T00:35:20.866Z,98.97
2019-01-24T00:37:47.825Z,97.96
2019-01-24T00:40:16.082Z,97.96
2019-01-24T00:42:43.047Z,97.94
2019-01-24T00:45:10.278Z,98.13
2019-01-24T00:47:37.251Z,98.44
2019-01-24T00:50:05.384Z,98.44
2019-01-24T00:52:32.469Z,98.32
2019-01-24T00:54:59.380Z,98.32
2019-01-24T00:57:26.349Z,98.45
2019-01-24T00:59:53.297Z,98.45
2019-01-24T01:02:20.251Z,99.40
2019-01-24T01:04:47.164Z,99.40
2019-01-24T01:07:14.131Z,99.43
2019-01-24T01:09:41.119Z,99.43
2019-01-24T01:12:08.025Z,99.03
2019-01-24T01:14:34.977Z,98.93
2019-01-24T01:17:01.931Z,98.56
2019-01-24T01:19:28.871Z,98.56
2019-01-24T01:21:55.794Z,98.90
2019-01-24T01:24:22.749Z,99.09
2019-01-24T01:26:49.675Z,98.74
2019-01-24T01:29:16.630Z,98.77
2019-01-24T01:31:43.565Z,98.77
2019-01-24T01:34:10.510Z,99.49
2019-01-24T01:36:37.445Z,99.57
2019-01-24T01:39:07.047Z,99.98
2019-01-24T01:41:33.983Z,99.58
2019-01-24T01:44:00.939Z,98.89
2019-01-24T01:46:27.878Z,98.89
2019-01-24T01:48:54.820Z,98.88
2019-01-24T01:51:21.742Z,98.99
2019-01-24T01:53:48.710Z,99.22
2019-01-24T01:56:15.634Z,98.85
2019-01-24T01:58:42.558Z,98.64
2019-01-24T02:01:09.576Z,98.30
2019-01-24T02:03:36.551Z,98.54
2019-01-24T02:06:03.727Z,98.35
2019-01-24T02:08:30.692Z,98.40
2019-01-24T02:10:57.601Z,98.39
2019-01-24T02:13:24.550Z,98.39
2019-01-24T02:15:51.494Z,98.46
2019-01-24T02:18:18.601Z,98.62
2019-01-24T02:20:45.548Z,98.94
2019-01-24T02:23:12.606Z,99.35
2019-01-24T02:25:39.612Z,99.30
2019-01-24T02:28:06.531Z,99.54
2019-01-24T02:30:33.546Z,99.57
2019-01-24T02:33:00.471Z,99.57
2019-01-24T02:35:27.432Z,99.14
2019-01-24T02:37:54.382Z,99.31
2019-01-24T02:40:21.343Z,98.49
2019-01-24T02:42:48.266Z,98.49
2019-01-24T02:45:16.549Z,98.57
2019-01-24T02:47:43.517Z,98.57
2019-01-24T02:50:12.666Z,98.54
2019-01-24T02:52:39.612Z,98.74
2019-01-24T02:55:08.399Z,98.65
2019-01-24T02:57:35.317Z,99.08
2019-01-24T03:00:02.794Z,98.78
2019-01-24T03:02:29.696Z,98.01
2019-01-24T03:04:57.223Z,98.25
2019-01-24T03:07:24.271Z,98.62
2019-01-24T03:09:51.251Z,98.46
2019-01-24T03:12:18.198Z,98.26
2019-01-24T03:14:45.143Z,98.57
2019-01-24T03:17:12.117Z,98.22
2019-01-24T03:19:39.068Z,98.43
2019-01-24T03:22:05.986Z,98.78
2019-01-24T03:24:32.947Z,99.07
2019-01-24T03:26:59.876Z,99.14
2019-01-24T03:29:26.826Z,99.27
2019-01-24T03:31:53.777Z,98.70
2019-01-24T03:34:20.789Z,97.87
2019-01-24T03:36:47.729Z,97.38
2019-01-24T03:39:14.683Z,97.64
2019-01-24T03:41:41.686Z,97.43
2019-01-24T03:44:08.634Z,97.80
2019-01-24T03:46:35.645Z,97.71
2019-01-24T03:49:02.572Z,97.37
2019-01-24T03:51:29.530Z,97.16
2019-01-24T03:53:56.463Z,96.67
2019-01-24T03:56:23.430Z,96.81
2019-01-24T03:58:50.367Z,97.15
2019-01-24T04:01:17.339Z,97.10
2019-01-24T04:03:44.271Z,95.99
2019-01-24T04:06:11.278Z,96.08
2019-01-24T04:08:38.208Z,95.01
2019-01-24T04:11:05.181Z,95.22
2019-01-24T04:13:32.135Z,94.92
2019-01-24T04:15:59.130Z,94.99
2019-01-24T04:18:26.047Z,94.76
2019-01-24T04:20:53.029Z,95.11
2019-01-24T04:23:19.984Z,94.62
2019-01-24T04:25:46.964Z,94.05
2019-01-24T04:28:13.903Z,94.14
2019-01-24T04:30:40.873Z,94.20
2019-01-24T04:33:07.814Z,94.00
2019-01-24T04:35:34.838Z,93.62
2019-01-24T04:38:01.761Z,93.85
2019-01-24T04:40:28.791Z,94.13
2019-01-24T04:42:55.707Z,93.33
2019-01-24T04:45:22.683Z,92.56
2019-01-24T04:47:49.591Z,92.74
2019-01-24T04:50:17.501Z,92.91
2019-01-24T04:52:44.442Z,92.90
2019-01-24T04:55:12.896Z,91.79
2019-01-24T04:57:39.839Z,92.09
2019-01-24T05:00:13.856Z,91.61
2019-01-24T05:02:40.779Z,91.61
2019-01-24T05:05:07.744Z,91.59
2019-01-24T05:07:34.698Z,92.59
2019-01-24T05:10:02.419Z,91.93
2019-01-24T05:12:29.510Z,91.42
2019-01-24T05:14:56.435Z,91.16
2019-01-24T05:17:23.555Z,91.24
2019-01-24T05:19:50.543Z,91.81
2019-01-24T05:22:17.595Z,91.45
2019-01-24T05:24:44.542Z,91.53
2019-01-24T05:27:11.500Z,91.06
2019-01-24T05:29:38.418Z,91.80
2019-01-24T05:32:05.801Z,91.35
2019-01-24T05:34:32.759Z,90.94
2019-01-24T05:36:59.729Z,91.71
2019-01-24T05:39:26.674Z,91.24
2019-01-24T05:41:53.655Z,91.27
2019-01-24T05:44:20.596Z,91.54
2019-01-24T05:46:47.588Z,91.42
2019-01-24T05:49:14.527Z,90.31
2019-01-24T05:51:41.481Z,90.98
2019-01-24T05:54:08.396Z,90.88
2019-01-24T05:56:35.460Z,90.82
2019-01-24T05:59:02.387Z,90.71
2019-01-24T06:01:29.773Z,90.77
2019-01-24T06:03:56.689Z,90.99
2019-01-24T06:06:23.691Z,90.58
2019-01-24T06:08:50.599Z,90.48
2019-01-24T06:11:17.566Z,90.72
2019-01-24T06:13:44.527Z,90.68
2019-01-24T06:16:11.496Z,90.48
2019-01-24T06:18:38.522Z,90.22
2019-01-24T06:21:05.486Z,90.17
2019-01-24T06:23:32.461Z,90.35
2019-01-24T06:25:59.426Z,90.69
2019-01-24T06:28:26.347Z,91.53
2019-01-24T06:30:53.340Z,91.42
2019-01-24T06:33:20.291Z,89.51
2019-01-24T06:35:48.873Z,90.56
2019-01-24T06:38:15.991Z,90.59
2019-01-24T06:40:42.940Z,91.04
2019-01-24T06:43:09.913Z,90.20
2019-01-24T06:45:36.834Z,89.56
2019-01-24T06:48:03.772Z,90.12
2019-01-24T06:50:30.746Z,90.42
2019-01-24T06:52:57.773Z,91.24
2019-01-24T06:55:26.426Z,90.16
2019-01-24T06:57:53.506Z,89.46
2019-01-24T07:00:20.545Z,89.40
2019-01-24T07:02:47.529Z,89.90
2019-01-24T07:05:14.883Z,90.00
2019-01-24T07:07:41.908Z,90.22
2019-01-24T07:10:11.460Z,90.53
2019-01-24T07:12:38.592Z,90.81
2019-01-24T07:15:07.805Z,90.65
2019-01-24T07:17:35.029Z,89.73
2019-01-24T07:20:02.216Z,89.23
2019-01-24T07:22:29.233Z,90.22
2019-01-24T07:24:56.146Z,89.94
2019-01-24T07:27:23.124Z,90.46
2019-01-24T07:29:50.066Z,90.89
2019-01-24T07:32:17.044Z,91.05
2019-01-24T07:34:44.004Z,90.76
2019-01-24T07:37:10.947Z,91.53
2019-01-24T07:39:37.853Z,90.82
2019-01-24T07:42:04.925Z,90.49
2019-01-24T07:44:31.844Z,89.34
2019-01-24T07:46:58.834Z,89.37
2019-01-24T07:49:25.747Z,90.40
2019-01-24T07:51:52.682Z,90.35
2019-01-24T07:54:20.125Z,89.52
2019-01-24T07:56:47.052Z,88.87
2019-01-24T07:59:14.068Z,88.61
2019-01-24T08:01:40.998Z,88.65
2019-01-24T08:04:07.948Z,89.53
2019-01-24T08:06:34.894Z,89.30
2019-01-24T08:09:01.864Z,89.38
2019-01-24T08:11:28.877Z,89.06
2019-01-24T08:13:55.833Z,88.65
2019-01-24T08:16:22.767Z,88.59
2019-01-24T08:18:50.035Z,88.45
2019-01-24T08:21:17.018Z,88.23
2019-01-24T08:23:43.971Z,88.17
2019-01-24T08:26:10.886Z,87.21
2019-01-24T08:28:37.942Z,88.00
2019-01-24T08:31:04.890Z,88.60
2019-01-24T08:33:31.872Z,88.37
2019-01-24T08:35:58.829Z,87.99
2019-01-24T08:38:25.791Z,87.39
2019-01-24T08:40:52.719Z,87.51
2019-01-24T08:43:19.674Z,87.76
2019-01-24T08:45:46.648Z,88.29
2019-01-24T08:48:13.663Z,87.94
2019-01-24T08:50:40.620Z,87.90
2019-01-24T08:53:07.899Z,87.79
2019-01-24T08:55:37.629Z,86.88
2019-01-24T08:58:05.144Z,88.00
2019-01-24T09:00:32.924Z,88.23
2019-01-24T09:02:59.858Z,88.31
2019-01-24T09:05:26.918Z,87.48
2019-01-24T09:07:53.895Z,88.22
2019-01-24T09:10:23.033Z,87.66
2019-01-24T09:12:49.940Z,88.19
2019-01-24T09:15:16.973Z,87.37
2019-01-24T09:17:43.893Z,87.53
2019-01-24T09:20:12.371Z,87.70
2019-01-24T09:22:39.469Z,87.66
2019-01-24T09:25:06.638Z,87.72
2019-01-24T09:27:33.913Z,87.26
2019-01-24T09:30:00.981Z,86.76
2019-01-24T09:32:27.952Z,87.85
2019-01-24T09:34:55.086Z,86.99
2019-01-24T09:37:22.010Z,86.20
2019-01-24T09:39:48.951Z,85.70
2019-01-24T09:42:15.860Z,85.98
2019-01-24T09:44:42.877Z,84.96
2019-01-24T09:47:09.820Z,85.71
2019-01-24T09:49:36.773Z,84.80
2019-01-24T09:52:03.717Z,84.64
2019-01-24T09:54:30.662Z,85.00
2019-01-24T09:56:57.685Z,87.14
2019-01-24T09:59:24.712Z,85.88
2019-01-24T10:01:51.670Z,86.16
2019-01-24T10:04:18.620Z,86.21
2019-01-24T10:06:45.600Z,86.02
2019-01-24T10:09:12.577Z,86.47
2019-01-24T10:11:39.489Z,88.00
2019-01-24T10:14:06.452Z,88.01
2019-01-24T10:16:33.371Z,87.45
2019-01-24T10:19:00.421Z,86.48
2019-01-24T10:21:27.346Z,86.00
2019-01-24T10:23:54.316Z,86.47
2019-01-24T10:26:21.257Z,86.13
2019-01-24T10:28:48.193Z,85.73
2019-01-24T10:31:15.181Z,84.86
2019-01-24T10:33:42.122Z,84.62
2019-01-24T10:36:09.110Z,84.64
2019-01-24T10:38:36.049Z,85.19
2019-01-24T10:41:03.291Z,84.14
2019-01-24T10:43:30.216Z,83.79
2019-01-24T10:45:57.193Z,83.80
2019-01-24T10:48:24.105Z,84.38
2019-01-24T10:50:51.081Z,85.28
2019-01-24T10:53:18.021Z,85.55
2019-01-24T10:55:44.970Z,85.13
2019-01-24T10:58:11.894Z,84.42
2019-01-24T11:00:40.560Z,86.06
2019-01-24T11:03:09.961Z,86.68
2019-01-24T11:05:36.900Z,86.71
2019-01-24T11:08:04.417Z,86.31
2019-01-24T11:10:31.811Z,86.18
2019-01-24T11:12:58.749Z,85.67
2019-01-24T11:15:26.115Z,86.84
2019-01-24T11:17:53.165Z,86.97
2019-01-24T11:20:20.390Z,85.46
2019-01-24T11:22:47.573Z,86.53
2019-01-24T11:25:16.151Z,86.28
2019-01-24T11:27:43.186Z,85.06
2019-01-24T11:30:12.896Z,85.82
2019-01-24T11:32:39.814Z,84.33
2019-01-24T11:35:09.660Z,86.21
2019-01-24T11:37:36.627Z,86.53
2019-01-24T11:40:04.868Z,84.42
2019-01-24T11:42:31.883Z,83.57
2019-01-24T11:44:58.796Z,84.82
2019-01-24T11:47:25.767Z,83.46
2019-01-24T11:49:52.695Z,82.86
2019-01-24T11:52:19.667Z,83.47
2019-01-24T11:54:46.612Z,83.55
2019-01-24T11:57:13.620Z,84.08
2019-01-24T11:59:40.876Z,83.25
2019-01-24T12:02:08.086Z,83.86
2019-01-24T12:04:35.037Z,83.08
2019-01-24T12:07:04.164Z,83.10
2019-01-24T12:09:30.867Z,83.97
2019-01-24T12:11:57.821Z,83.86
2019-01-24T12:14:24.785Z,83.70
2019-01-24T12:16:51.753Z,83.79
2019-01-24T12:19:18.792Z,82.51
2019-01-24T12:21:46.885Z,84.37
2019-01-24T12:24:13.887Z,83.63
2019-01-24T12:26:40.833Z,83.76
2019-01-24T12:29:07.813Z,83.16
2019-01-24T12:31:34.757Z,83.40
2019-01-24T12:34:01.668Z,83.54
2019-01-24T12:36:28.638Z,84.06
2019-01-24T12:38:55.569Z,84.44
2019-01-24T12:41:22.612Z,82.79
2019-01-24T12:43:49.724Z,81.79
2019-01-24T12:46:16.675Z,81.84
2019-01-24T12:48:44.193Z,81.38
2019-01-24T12:51:11.157Z,80.07
2019-01-24T12:53:38.151Z,80.79
2019-01-24T12:56:05.120Z,81.95
2019-01-24T12:58:32.019Z,82.49
2019-01-24T13:00:59.203Z,80.77
2019-01-24T13:03:26.241Z,81.03
2019-01-24T13:05:53.192Z,81.58
2019-01-24T13:08:20.184Z,80.92
2019-01-24T13:10:47.291Z,80.48
2019-01-24T13:13:14.231Z,80.56
2019-01-24T13:15:41.470Z,80.77
2019-01-24T13:18:08.459Z,80.79
2019-01-24T13:20:35.449Z,81.96
2019-01-24T13:23:02.740Z,81.09
2019-01-24T13:25:31.387Z,82.20
2019-01-24T13:27:58.394Z,81.90
2019-01-24T13:30:27.429Z,81.97
2019-01-24T13:32:54.445Z,80.69
2019-01-24T13:35:21.482Z,81.54
2019-01-24T13:37:48.456Z,80.40
2019-01-24T13:40:23.065Z,81.50
2019-01-24T13:42:50.189Z,81.83
2019-01-24T13:45:19.426Z,81.55
2019-01-24T13:47:46.905Z,81.14
2019-01-24T13:50:14.757Z,80.64
2019-01-24T13:52:41.723Z,81.19
2019-01-24T13:55:08.889Z,82.22
2019-01-24T13:57:35.875Z,81.93
2019-01-24T14:00:06.738Z,82.13
2019-01-24T14:02:33.709Z,82.48
2019-01-24T14:05:00.629Z,81.89
2019-01-24T14:07:32.978Z,82.86
2019-01-24T14:09:56.422Z,82.71
2019-01-24T14:12:23.385Z,83.33
2019-01-24T14:14:50.313Z,82.50
2019-01-24T14:17:17.279Z,82.69
2019-01-24T14:19:44.213Z,83.13
2019-01-24T14:22:11.123Z,82.25
2019-01-24T14:24:38.083Z,82.12
2019-01-24T14:27:05.207Z,82.68
2019-01-24T14:29:32.154Z,82.55
2019-01-24T14:31:59.109Z,82.05
2019-01-24T14:34:26.106Z,81.83
2019-01-24T14:36:53.250Z,82.48
2019-01-24T14:39:20.295Z,82.88
2019-01-24T14:41:47.325Z,82.95
2019-01-24T14:44:14.285Z,84.08
2019-01-24T14:46:41.307Z,83.64
2019-01-24T14:49:08.280Z,83.26
2019-01-24T14:51:35.212Z,82.93
2019-01-24T14:54:02.157Z,82.10
2019-01-24T14:56:29.093Z,81.92
2019-01-24T14:58:56.164Z,82.89
2019-01-24T15:01:25.125Z,82.49
2019-01-24T15:03:52.202Z,83.76
2019-01-24T15:06:19.158Z,83.86
2019-01-24T15:08:46.231Z,83.15
2019-01-24T15:11:13.214Z,82.04
2019-01-24T15:13:40.168Z,82.79
2019-01-24T15:16:07.105Z,84.17
2019-01-24T15:18:34.063Z,84.28
2019-01-24T15:21:01.071Z,83.38
2019-01-24T15:23:28.032Z,82.52
2019-01-24T15:25:54.965Z,83.95
2019-01-24T15:28:21.924Z,84.45
2019-01-24T15:30:48.886Z,84.04
2019-01-24T15:33:15.817Z,83.62
2019-01-24T15:35:42.789Z,83.31
2019-01-24T15:38:09.707Z,83.06
2019-01-24T15:40:37.817Z,83.01
2019-01-24T15:43:05.204Z,83.04
2019-01-24T15:45:32.284Z,83.49
2019-01-24T15:47:59.244Z,83.67
2019-01-24T15:50:26.252Z,83.17
2019-01-24T15:52:53.235Z,82.84
2019-01-24T15:55:20.220Z,83.48
2019-01-24T15:57:47.278Z,84.34
2019-01-24T16:00:19.467Z,85.28
2019-01-24T16:02:46.416Z,84.48
2019-01-24T16:05:13.874Z,83.92
2019-01-24T16:07:40.839Z,84.26
2019-01-24T16:10:09.657Z,84.30
2019-01-24T16:12:36.667Z,84.09
2019-01-24T16:15:05.650Z,84.07
2019-01-24T16:17:32.685Z,83.66
2019-01-24T16:19:59.791Z,85.46
2019-01-24T16:22:26.713Z,84.04
2019-01-24T16:24:53.719Z,84.70
2019-01-24T16:27:20.644Z,85.31
2019-01-24T16:29:47.613Z,84.88
2019-01-24T16:32:14.545Z,84.13
2019-01-24T16:34:41.542Z,84.60
2019-01-24T16:37:08.454Z,84.43
2019-01-24T16:39:35.555Z,83.98
2019-01-24T16:42:02.482Z,84.59
2019-01-24T16:44:29.445Z,84.63
2019-01-24T16:46:56.444Z,85.70
2019-01-24T16:49:24.174Z,86.11
2019-01-24T16:51:51.080Z,86.69
2019-01-24T16:54:18.049Z,85.30
2019-01-24T16:56:44.976Z,85.42
2019-01-24T16:59:11.974Z,85.69
2019-01-24T17:01:38.933Z,86.02
2019-01-24T17:04:05.930Z,85.99
2019-01-24T17:06:32.899Z,85.74
2019-01-24T17:08:59.806Z,85.87
2019-01-24T17:11:26.799Z,86.06
2019-01-24T17:13:53.817Z,85.84
2019-01-24T17:16:20.765Z,85.34
2019-01-24T17:18:47.691Z,85.71
2019-01-24T17:21:14.639Z,85.58
2019-01-24T17:23:41.560Z,85.56
2019-01-24T17:26:08.662Z,85.73
2019-01-24T17:28:35.584Z,85.56
2019-01-24T17:31:02.566Z,85.51
2019-01-24T17:33:29.674Z,87.01
2019-01-24T17:35:56.635Z,87.43
2019-01-24T17:38:24.119Z,85.48
2019-01-24T17:40:51.241Z,85.44
2019-01-24T17:43:18.173Z,85.10
2019-01-24T17:45:45.169Z,85.22
2019-01-24T17:48:12.124Z,85.83
2019-01-24T17:50:39.095Z,85.99
2019-01-24T17:53:06.031Z,86.37
2019-01-24T17:55:35.501Z,85.73
2019-01-24T17:58:03.165Z,86.42
2019-01-24T18:00:32.907Z,85.96
2019-01-24T18:02:59.959Z,86.19
2019-01-24T18:05:26.985Z,85.39
2019-01-24T18:07:54.018Z,86.54
2019-01-24T18:10:22.609Z,87.45
2019-01-24T18:12:49.581Z,87.32
2019-01-24T18:15:19.052Z,87.13
2019-01-24T18:17:46.207Z,86.52
2019-01-24T18:20:18.335Z,86.37
2019-01-24T18:22:44.597Z,86.86
2019-01-24T18:25:11.513Z,86.76
2019-01-24T18:27:38.497Z,86.29
2019-01-24T18:30:07.834Z,86.38
2019-01-24T18:32:34.826Z,86.52
2019-01-24T18:35:01.778Z,86.79
2019-01-24T18:37:29.092Z,85.25
2019-01-24T18:39:56.633Z,83.80
2019-01-24T18:42:25.205Z,84.00
2019-01-24T18:44:52.652Z,84.36
2019-01-24T18:47:20.890Z,85.39
2019-01-24T18:49:48.240Z,85.50
2019-01-24T18:52:15.230Z,85.38
2019-01-24T18:54:42.256Z,84.88
2019-01-24T18:57:09.215Z,85.85
2019-01-24T18:59:36.159Z,85.79
2019-01-24T19:02:03.300Z,84.86
2019-01-24T19:04:30.283Z,83.77
2019-01-24T19:06:57.607Z,84.35
2019-01-24T19:09:24.782Z,84.75
2019-01-24T19:11:51.826Z,83.83
2019-01-24T19:14:18.888Z,83.23
2019-01-24T19:16:45.825Z,83.35
2019-01-24T19:19:13.318Z,84.41
2019-01-24T19:21:40.411Z,85.06
2019-01-24T19:24:07.314Z,84.48
2019-01-24T19:26:34.221Z,83.81
2019-01-24T19:29:01.169Z,85.30
2019-01-24T19:31:28.214Z,84.75
2019-01-24T19:33:55.153Z,83.64
2019-01-24T19:36:22.074Z,84.07
2019-01-24T19:38:53.002Z,83.93
2019-01-24T19:41:17.915Z,83.56
2019-01-24T19:43:44.967Z,84.52
2019-01-24T19:46:11.890Z,84.69
2019-01-24T19:48:38.855Z,85.49
2019-01-24T19:51:05.797Z,84.75
2019-01-24T19:53:33.651Z,83.31
2019-01-24T19:56:01.846Z,84.32
2019-01-24T19:58:30.293Z,84.78
2019-01-24T20:00:58.095Z,85.71
2019-01-24T20:03:25.486Z,84.78
2019-01-24T20:05:53.638Z,85.11
2019-01-24T20:08:20.802Z,85.16
2019-01-24T20:10:47.756Z,85.67
2019-01-24T20:13:14.718Z,84.57
2019-01-24T20:15:41.626Z,84.47
2019-01-24T20:18:08.651Z,83.62
2019-01-24T20:20:35.823Z,84.23
2019-01-24T20:23:03.203Z,83.29
2019-01-24T20:25:31.328Z,82.70
2019-01-24T20:27:58.283Z,83.09
2019-01-24T20:30:26.799Z,83.78
2019-01-24T20:35:49.288Z,84.01
2019-01-24T20:38:16.242Z,83.40
2019-01-24T20:40:43.175Z,84.33
2019-01-24T20:43:11.080Z,84.31
2019-01-24T20:45:38.564Z,84.23
2019-01-24T20:48:05.514Z,84.23
2019-01-24T20:50:32.479Z,84.69
2019-01-24T20:52:59.413Z,85.28
2019-01-24T20:55:26.372Z,86.08
2019-01-24T20:57:53.305Z,84.73
2019-01-24T21:00:21.182Z,85.64
2019-01-24T21:02:48.241Z,85.69
2019-01-24T21:05:18.463Z,83.50
2019-01-24T21:07:45.707Z,83.57
2019-01-24T21:10:15.262Z,82.95
2019-01-24T21:12:42.308Z,84.01
2019-01-24T21:15:10.583Z,83.42
2019-01-24T21:17:37.533Z,83.97
2019-01-24T21:20:06.499Z,84.42
2019-01-24T21:22:33.452Z,83.29
2019-01-24T21:25:00.424Z,83.76
2019-01-24T21:27:28.881Z,83.18
2019-01-24T21:29:55.984Z,83.16
2019-01-24T21:32:22.935Z,84.59
2019-01-24T21:34:49.918Z,83.69
2019-01-24T21:37:16.937Z,83.57
2019-01-24T21:39:43.976Z,83.48
2019-01-24T21:42:10.874Z,84.12
2019-01-24T21:44:37.851Z,84.73
2019-01-24T21:47:04.900Z,84.72
2019-01-24T21:49:31.855Z,85.29
2019-01-24T21:51:58.799Z,84.16
2019-01-24T21:54:25.820Z,83.50
2019-01-24T21:56:52.877Z,83.48
2019-01-24T21:59:19.842Z,83.91
2019-01-24T22:01:46.770Z,84.72
2019-01-24T22:04:13.709Z,84.47
2019-01-24T22:06:40.674Z,84.91
2019-01-24T22:09:08.380Z,84.59
2019-01-24T22:11:35.283Z,84.50
2019-01-24T22:14:02.212Z,82.63
2019-01-24T22:16:29.154Z,84.02
2019-01-24T22:18:56.095Z,83.74
2019-01-24T22:21:23.095Z,82.88
2019-01-24T22:23:50.181Z,82.56
2019-01-24T22:26:17.131Z,83.34
2019-01-24T22:28:44.140Z,83.97
2019-01-24T22:31:11.090Z,84.34
2019-01-24T22:33:38.017Z,83.38
2019-01-24T22:36:05.167Z,83.22
2019-01-24T22:38:32.058Z,84.54
2019-01-24T22:40:59.011Z,82.78
2019-01-24T22:43:25.923Z,82.02
2019-01-24T22:45:52.876Z,83.36
2019-01-24T22:48:19.805Z,84.53
2019-01-24T22:50:46.891Z,84.04
2019-01-24T22:53:13.826Z,84.50
2019-01-24T22:55:40.760Z,84.79
2019-01-24T22:58:07.667Z,85.09
2019-01-24T23:01:37.690Z,84.66
2019-01-24T23:04:11.014Z,85.01
2019-01-24T23:06:37.995Z,83.34
2019-01-24T23:09:08.734Z,83.71
2019-01-24T23:11:35.723Z,84.23
2019-01-24T23:14:02.631Z,84.70
2019-01-24T23:16:29.585Z,84.54
2019-01-24T23:18:56.464Z,84.86
2019-01-24T23:21:23.525Z,84.35
2019-01-24T23:23:50.476Z,84.15
2019-01-24T23:26:17.784Z,83.93
2019-01-24T23:28:44.714Z,84.17
2019-01-24T23:31:11.661Z,83.77
2019-01-24T23:33:38.566Z,82.87
2019-01-24T23:36:05.723Z,82.87
2019-01-24T23:38:32.633Z,83.44
2019-01-24T23:40:59.678Z,83.91
2019-01-24T23:43:26.630Z,83.77
2019-01-24T23:45:53.507Z,82.50
2019-01-24T23:48:20.418Z,83.97
2019-01-24T23:50:47.358Z,84.61
2019-01-24T23:53:14.273Z,84.78
2019-01-24T23:55:41.244Z,83.93
2019-01-24T23:58:08.362Z,84.04
